sensor_id;sensor_type;location;lat;lon;timestamp;temperature;humidity
21489;DHT22;10906;45.194;5.684;2022-10-18T05:02:40;15.10;99.90
21489;DHT22;10906;45.194;5.684;2022-10-18T05:05:25;15.10;99.90
21489;DHT22;10906;45.194;5.684;2022-10-18T05:08:09;15.10;99.90
21489;DHT22;10906;45.194;5.684;2022-10-18T05:10:54;15.10;99.90
21489;DHT22;10906;45.194;5.684;2022-10-18T05:13:38;15.10;99.90
21489;DHT22;10906;45.194;5.684;2022-10-18T05:16:22;15.10;99.90
21489;DHT22;10906;45.194;5.684;2022-10-18T05:19:13;15.00;99.90
21489;DHT22;10906;45.194;5.684;2022-10-18T05:21:57;15.10;99.90
21489;DHT22;10906;45.194;5.684;2022-10-18T05:24:41;15.10;99.90
21489;DHT22;10906;45.194;5.684;2022-10-18T05:27:25;15.10;99.90
21489;DHT22;10906;45.194;5.684;2022-10-18T05:30:13;15.10;99.90
21489;DHT22;10906;45.194;5.684;2022-10-18T05:32:57;15.10;99.90
21489;DHT22;10906;45.194;5.684;2022-10-18T05:35:45;15.10;99.90
21489;DHT22;10906;45.194;5.684;2022-10-18T05:38:29;15.10;99.90
21489;DHT22;10906;45.194;5.684;2022-10-18T05:41:13;15.00;99.90
21489;DHT22;10906;45.194;5.684;2022-10-18T05:44:02;14.90;99.90
21489;DHT22;10906;45.194;5.684;2022-10-18T05:46:46;14.90;99.90
21489;DHT22;10906;45.194;5.684;2022-10-18T05:49:31;16.80;99.90
21489;DHT22;10906;45.194;5.684;2022-10-18T05:52:15;15.00;99.90
21489;DHT22;10906;45.194;5.684;2022-10-18T05:55:00;14.90;99.90
21489;DHT22;10906;45.194;5.684;2022-10-18T05:57:48;14.80;99.90
21489;DHT22;10906;45.194;5.684;2022-10-18T06:00:33;14.70;99.90
21489;DHT22;10906;45.194;5.684;2022-10-18T06:03:17;14.80;99.90
21489;DHT22;10906;45.194;5.684;2022-10-18T06:06:09;14.80;99.90
21489;DHT22;10906;45.194;5.684;2022-10-18T06:08:53;14.80;99.90
21489;DHT22;10906;45.194;5.684;2022-10-18T06:11:37;14.80;99.90
21489;DHT22;10906;45.194;5.684;2022-10-18T06:14:22;14.80;99.90
21489;DHT22;10906;45.194;5.684;2022-10-18T06:17:06;14.80;99.90
21489;DHT22;10906;45.194;5.684;2022-10-18T06:19:50;14.80;99.90
21489;DHT22;10906;45.194;5.684;2022-10-18T06:22:34;14.80;99.90
21489;DHT22;10906;45.194;5.684;2022-10-18T06:25:19;14.80;99.90
21489;DHT22;10906;45.194;5.684;2022-10-18T06:28:03;14.70;99.90
21489;DHT22;10906;45.194;5.684;2022-10-18T06:30:48;14.70;99.90
21489;DHT22;10906;45.194;5.684;2022-10-18T06:33:34;14.70;99.90
21489;DHT22;10906;45.194;5.684;2022-10-18T06:36:19;14.70;99.90
21489;DHT22;10906;45.194;5.684;2022-10-18T06:39:05;14.70;99.90
21489;DHT22;10906;45.194;5.684;2022-10-18T06:41:49;14.70;99.90
21489;DHT22;10906;45.194;5.684;2022-10-18T06:44:33;14.70;99.90
21489;DHT22;10906;45.194;5.684;2022-10-18T06:47:17;14.70;99.90
21489;DHT22;10906;45.194;5.684;2022-10-18T06:50:02;14.80;99.90
21489;DHT22;10906;45.194;5.684;2022-10-18T06:52:47;14.80;99.90
21489;DHT22;10906;45.194;5.684;2022-10-18T06:55:32;14.90;99.90
21489;DHT22;10906;45.194;5.684;2022-10-18T06:58:17;14.90;99.90
21489;DHT22;10906;45.194;5.684;2022-10-18T07:01:10;15.00;99.90
21489;DHT22;10906;45.194;5.684;2022-10-18T07:03:54;15.00;99.90
21489;DHT22;10906;45.194;5.684;2022-10-18T07:06:39;15.00;99.90
21489;DHT22;10906;45.194;5.684;2022-10-18T07:09:24;15.10;99.90
21489;DHT22;10906;45.194;5.684;2022-10-18T07:12:08;15.10;99.90
21489;DHT22;10906;45.194;5.684;2022-10-18T07:14:55;15.10;99.90
21489;DHT22;10906;45.194;5.684;2022-10-18T07:17:39;15.20;99.90
21489;DHT22;10906;45.194;5.684;2022-10-18T07:20:23;15.20;99.90
21489;DHT22;10906;45.194;5.684;2022-10-18T07:23:07;15.20;99.90
21489;DHT22;10906;45.194;5.684;2022-10-18T07:25:52;15.20;99.90
21489;DHT22;10906;45.194;5.684;2022-10-18T07:28:37;15.20;99.90
21489;DHT22;10906;45.194;5.684;2022-10-18T07:31:22;15.30;99.90
21489;DHT22;10906;45.194;5.684;2022-10-18T07:34:07;15.30;99.90
21489;DHT22;10906;45.194;5.684;2022-10-18T07:36:53;15.40;99.90
21489;DHT22;10906;45.194;5.684;2022-10-18T07:39:37;15.40;99.90
21489;DHT22;10906;45.194;5.684;2022-10-18T07:42:21;15.50;99.90
21489;DHT22;10906;45.194;5.684;2022-10-18T07:45:05;15.50;99.90
21489;DHT22;10906;45.194;5.684;2022-10-18T07:47:56;15.60;99.90
21489;DHT22;10906;45.194;5.684;2022-10-18T07:50:41;15.70;99.90
21489;DHT22;10906;45.194;5.684;2022-10-18T07:53:25;15.80;99.90
21489;DHT22;10906;45.194;5.684;2022-10-18T07:56:12;15.90;99.90
21489;DHT22;10906;45.194;5.684;2022-10-18T07:59:00;16.00;99.90
21489;DHT22;10906;45.194;5.684;2022-10-18T08:01:45;16.10;99.90
21489;DHT22;10906;45.194;5.684;2022-10-18T08:04:29;16.20;99.90
21489;DHT22;10906;45.194;5.684;2022-10-18T08:07:14;16.30;99.90
21489;DHT22;10906;45.194;5.684;2022-10-18T08:09:58;16.40;99.90
21489;DHT22;10906;45.194;5.684;2022-10-18T08:12:42;16.50;99.90
21489;DHT22;10906;45.194;5.684;2022-10-18T08:15:26;16.60;99.90
21489;DHT22;10906;45.194;5.684;2022-10-18T08:18:11;16.80;99.90
21489;DHT22;10906;45.194;5.684;2022-10-18T08:20:55;16.80;99.90
21489;DHT22;10906;45.194;5.684;2022-10-18T08:23:39;17.00;99.90
21489;DHT22;10906;45.194;5.684;2022-10-18T08:26:24;17.10;99.90
21489;DHT22;10906;45.194;5.684;2022-10-18T08:29:08;17.20;99.90
21489;DHT22;10906;45.194;5.684;2022-10-18T08:31:54;17.30;99.90
21489;DHT22;10906;45.194;5.684;2022-10-18T08:34:38;17.50;99.90
21489;DHT22;10906;45.194;5.684;2022-10-18T08:37:22;17.60;99.90
21489;DHT22;10906;45.194;5.684;2022-10-18T08:40:08;17.70;99.90
21489;DHT22;10906;45.194;5.684;2022-10-18T08:43:04;17.90;99.90
21489;DHT22;10906;45.194;5.684;2022-10-18T08:45:52;18.00;99.90
21489;DHT22;10906;45.194;5.684;2022-10-18T08:48:44;18.20;99.90
21489;DHT22;10906;45.194;5.684;2022-10-18T08:51:49;18.40;99.90
21489;DHT22;10906;45.194;5.684;2022-10-18T08:54:38;18.70;99.90
21489;DHT22;10906;45.194;5.684;2022-10-18T08:57:27;19.00;99.90
21489;DHT22;10906;45.194;5.684;2022-10-18T09:00:21;19.30;99.90
21489;DHT22;10906;45.194;5.684;2022-10-18T09:09:54;20.10;99.90
21489;DHT22;10906;45.194;5.684;2022-10-18T09:15:57;20.50;99.90
21489;DHT22;10906;45.194;5.684;2022-10-18T09:22:00;21.00;99.90
21489;DHT22;10906;45.194;5.684;2022-10-18T09:25:09;21.20;99.90
21489;DHT22;10906;45.194;5.684;2022-10-18T09:28:32;21.30;99.90
21489;DHT22;10906;45.194;5.684;2022-10-18T09:31:43;21.60;99.90
21489;DHT22;10906;45.194;5.684;2022-10-18T09:35:00;21.60;99.90
21489;DHT22;10906;45.194;5.684;2022-10-18T09:37:49;21.80;99.90
21489;DHT22;10906;45.194;5.684;2022-10-18T09:40:49;22.10;99.90
21489;DHT22;10906;45.194;5.684;2022-10-18T09:46:30;22.40;99.90
21489;DHT22;10906;45.194;5.684;2022-10-18T09:49:20;22.50;98.60
21489;DHT22;10906;45.194;5.684;2022-10-18T09:55:19;22.90;99.90
21489;DHT22;10906;45.194;5.684;2022-10-18T09:58:07;23.30;99.90
21489;DHT22;10906;45.194;5.684;2022-10-18T10:00:54;23.70;99.90
21489;DHT22;10906;45.194;5.684;2022-10-18T10:03:39;23.80;99.90
21489;DHT22;10906;45.194;5.684;2022-10-18T10:06:32;23.80;99.60
21489;DHT22;10906;45.194;5.684;2022-10-18T10:09:30;23.80;99.40
21489;DHT22;10906;45.194;5.684;2022-10-18T10:15:06;23.80;99.30
21489;DHT22;10906;45.194;5.684;2022-10-18T10:18:04;23.80;98.70
21489;DHT22;10906;45.194;5.684;2022-10-18T10:20:56;23.70;98.90
21489;DHT22;10906;45.194;5.684;2022-10-18T10:23:51;23.60;98.60
21489;DHT22;10906;45.194;5.684;2022-10-18T10:26:36;23.60;98.80
21489;DHT22;10906;45.194;5.684;2022-10-18T10:32:44;23.70;98.30
21489;DHT22;10906;45.194;5.684;2022-10-18T10:35:36;23.70;98.40
21489;DHT22;10906;45.194;5.684;2022-10-18T10:38:25;24.10;98.70
21489;DHT22;10906;45.194;5.684;2022-10-18T10:41:19;24.30;98.10
21489;DHT22;10906;45.194;5.684;2022-10-18T10:44:19;24.50;97.80
21489;DHT22;10906;45.194;5.684;2022-10-18T10:47:03;24.40;97.60
21489;DHT22;10906;45.194;5.684;2022-10-18T10:49:48;24.40;97.70
21489;DHT22;10906;45.194;5.684;2022-10-18T10:52:32;24.40;97.70
21489;DHT22;10906;45.194;5.684;2022-10-18T10:55:21;24.40;97.30
21489;DHT22;10906;45.194;5.684;2022-10-18T10:58:16;24.60;97.20
21489;DHT22;10906;45.194;5.684;2022-10-18T11:04:23;24.90;95.40
21489;DHT22;10906;45.194;5.684;2022-10-18T11:13:23;24.10;96.40
21489;DHT22;10906;45.194;5.684;2022-10-18T11:16:32;23.80;95.80
21489;DHT22;10906;45.194;5.684;2022-10-18T11:19:31;23.90;96.00
21489;DHT22;10906;45.194;5.684;2022-10-18T11:22:22;24.10;96.20
21489;DHT22;10906;45.194;5.684;2022-10-18T11:25:12;24.00;96.50
21489;DHT22;10906;45.194;5.684;2022-10-18T11:28:07;23.80;96.60
21489;DHT22;10906;45.194;5.684;2022-10-18T11:33:57;23.50;96.40
21489;DHT22;10906;45.194;5.684;2022-10-18T11:37:03;23.50;96.20
21489;DHT22;10906;45.194;5.684;2022-10-18T11:45:56;23.50;96.20
21489;DHT22;10906;45.194;5.684;2022-10-18T11:49:09;23.50;96.20
21489;DHT22;10906;45.194;5.684;2022-10-18T12:03:53;23.20;96.40
21489;DHT22;10906;45.194;5.684;2022-10-18T12:06:42;23.10;96.30
21489;DHT22;10906;45.194;5.684;2022-10-18T12:09:33;23.10;96.50
21489;DHT22;10906;45.194;5.684;2022-10-18T12:15:14;23.10;96.60
21489;DHT22;10906;45.194;5.684;2022-10-18T12:18:10;23.10;96.30
21489;DHT22;10906;45.194;5.684;2022-10-18T12:20:57;23.10;96.00
21489;DHT22;10906;45.194;5.684;2022-10-18T12:23:58;23.00;96.50
21489;DHT22;10906;45.194;5.684;2022-10-18T12:26:43;23.10;96.20
21489;DHT22;10906;45.194;5.684;2022-10-18T12:29:46;23.10;96.10
21489;DHT22;10906;45.194;5.684;2022-10-18T12:32:35;23.10;95.30
21489;DHT22;10906;45.194;5.684;2022-10-18T12:35:20;23.00;95.60
21489;DHT22;10906;45.194;5.684;2022-10-18T12:38:27;23.00;96.00
21489;DHT22;10906;45.194;5.684;2022-10-18T12:41:24;23.10;95.50
21489;DHT22;10906;45.194;5.684;2022-10-18T12:44:29;23.10;95.80
21489;DHT22;10906;45.194;5.684;2022-10-18T12:47:24;23.20;95.20
21489;DHT22;10906;45.194;5.684;2022-10-18T12:55:53;23.20;95.50
21489;DHT22;10906;45.194;5.684;2022-10-18T12:58:37;23.20;94.80
21489;DHT22;10906;45.194;5.684;2022-10-18T13:01:21;23.20;94.60
21489;DHT22;10906;45.194;5.684;2022-10-18T13:15:45;23.30;93.70
21489;DHT22;10906;45.194;5.684;2022-10-18T13:18:52;23.40;93.70
21489;DHT22;10906;45.194;5.684;2022-10-18T13:28:01;23.40;93.20
21489;DHT22;10906;45.194;5.684;2022-10-18T13:33:41;23.50;93.00
21489;DHT22;10906;45.194;5.684;2022-10-18T13:36:30;23.50;93.20
21489;DHT22;10906;45.194;5.684;2022-10-18T13:39:18;23.50;92.90
21489;DHT22;10906;45.194;5.684;2022-10-18T13:42:28;23.50;92.90
21489;DHT22;10906;45.194;5.684;2022-10-18T13:48:44;23.60;92.90
21489;DHT22;10906;45.194;5.684;2022-10-18T13:54:41;23.60;93.00
21489;DHT22;10906;45.194;5.684;2022-10-18T14:06:45;23.70;92.40
21489;DHT22;10906;45.194;5.684;2022-10-18T14:09:34;23.70;92.20
21489;DHT22;10906;45.194;5.684;2022-10-18T14:12:29;23.70;92.20
21489;DHT22;10906;45.194;5.684;2022-10-18T14:15:19;23.70;92.60
21489;DHT22;10906;45.194;5.684;2022-10-18T14:18:17;23.70;92.90
21489;DHT22;10906;45.194;5.684;2022-10-18T14:21:12;23.70;92.40
21489;DHT22;10906;45.194;5.684;2022-10-18T14:24:11;23.70;92.30
21489;DHT22;10906;45.194;5.684;2022-10-18T14:27:19;23.70;92.30
21489;DHT22;10906;45.194;5.684;2022-10-18T14:30:08;23.70;92.10
21489;DHT22;10906;45.194;5.684;2022-10-18T14:38:24;23.80;92.50
21489;DHT22;10906;45.194;5.684;2022-10-18T14:41:23;23.70;94.00
21489;DHT22;10906;45.194;5.684;2022-10-18T14:44:29;23.80;92.60
21489;DHT22;10906;45.194;5.684;2022-10-18T14:47:16;23.80;92.50
21489;DHT22;10906;45.194;5.684;2022-10-18T14:58:19;24.10;92.10
21489;DHT22;10906;45.194;5.684;2022-10-18T15:03:49;24.20;91.90
21489;DHT22;10906;45.194;5.684;2022-10-18T15:09:21;24.20;92.10
21489;DHT22;10906;45.194;5.684;2022-10-18T15:12:06;24.20;92.40
21489;DHT22;10906;45.194;5.684;2022-10-18T15:14:51;24.30;92.80
21489;DHT22;10906;45.194;5.684;2022-10-18T15:17:36;24.40;93.10
21489;DHT22;10906;45.194;5.684;2022-10-18T15:20:33;24.40;93.40
21489;DHT22;10906;45.194;5.684;2022-10-18T15:23:22;24.50;93.10
21489;DHT22;10906;45.194;5.684;2022-10-18T15:26:10;24.50;93.40
21489;DHT22;10906;45.194;5.684;2022-10-18T15:28:56;24.40;92.60
21489;DHT22;10906;45.194;5.684;2022-10-18T15:31:42;24.20;93.10
21489;DHT22;10906;45.194;5.684;2022-10-18T15:34:27;23.90;93.10
21489;DHT22;10906;45.194;5.684;2022-10-18T15:46:30;22.90;94.40
21489;DHT22;10906;45.194;5.684;2022-10-18T15:52:49;22.60;95.10
21489;DHT22;10906;45.194;5.684;2022-10-18T15:55:44;22.40;95.30
21489;DHT22;10906;45.194;5.684;2022-10-18T15:58:39;22.20;96.20
21489;DHT22;10906;45.194;5.684;2022-10-18T16:01:41;22.20;95.80
21489;DHT22;10906;45.194;5.684;2022-10-18T16:04:28;22.00;95.90
21489;DHT22;10906;45.194;5.684;2022-10-18T16:07:12;21.90;96.00
21489;DHT22;10906;45.194;5.684;2022-10-18T16:09:56;21.80;96.30
21489;DHT22;10906;45.194;5.684;2022-10-18T16:12:40;21.60;96.40
21489;DHT22;10906;45.194;5.684;2022-10-18T16:15:25;21.50;96.70
21489;DHT22;10906;45.194;5.684;2022-10-18T16:18:15;21.50;96.80
21489;DHT22;10906;45.194;5.684;2022-10-18T16:21:09;21.40;96.80
21489;DHT22;10906;45.194;5.684;2022-10-18T16:24:21;21.50;97.00
21489;DHT22;10906;45.194;5.684;2022-10-18T16:27:07;21.10;97.20
21489;DHT22;10906;45.194;5.684;2022-10-18T16:29:52;21.10;97.30
21489;DHT22;10906;45.194;5.684;2022-10-18T16:32:37;20.30;97.10
21489;DHT22;10906;45.194;5.684;2022-10-18T16:35:21;20.90;97.40
21489;DHT22;10906;45.194;5.684;2022-10-18T16:38:20;20.60;97.40
21489;DHT22;10906;45.194;5.684;2022-10-18T16:41:06;20.70;97.70
21489;DHT22;10906;45.194;5.684;2022-10-18T16:43:51;20.60;97.80
21489;DHT22;10906;45.194;5.684;2022-10-18T16:46:35;20.60;98.00
21489;DHT22;10906;45.194;5.684;2022-10-18T16:49:22;20.60;98.10
21489;DHT22;10906;45.194;5.684;2022-10-18T16:52:07;20.50;98.00
21489;DHT22;10906;45.194;5.684;2022-10-18T16:54:51;20.50;98.30
21489;DHT22;10906;45.194;5.684;2022-10-18T16:57:36;20.40;98.30
21489;DHT22;10906;45.194;5.684;2022-10-18T17:00:21;20.30;98.30
21489;DHT22;10906;45.194;5.684;2022-10-18T17:03:06;20.20;98.50
21489;DHT22;10906;45.194;5.684;2022-10-18T17:05:52;20.10;98.40
21489;DHT22;10906;45.194;5.684;2022-10-18T17:08:36;20.00;98.60
21489;DHT22;10906;45.194;5.684;2022-10-18T17:11:23;19.90;98.60
21489;DHT22;10906;45.194;5.684;2022-10-18T17:14:07;19.90;98.60
21489;DHT22;10906;45.194;5.684;2022-10-18T17:16:51;19.80;98.80
21489;DHT22;10906;45.194;5.684;2022-10-18T17:19:36;19.70;98.80
21489;DHT22;10906;45.194;5.684;2022-10-18T17:22:21;19.80;99.00
21489;DHT22;10906;45.194;5.684;2022-10-18T17:25:06;19.70;99.10
21489;DHT22;10906;45.194;5.684;2022-10-18T17:27:50;19.50;99.20
21489;DHT22;10906;45.194;5.684;2022-10-18T17:30:40;19.60;99.30
21489;DHT22;10906;45.194;5.684;2022-10-18T17:33:34;19.50;99.40
21489;DHT22;10906;45.194;5.684;2022-10-18T17:36:19;19.40;99.50
21489;DHT22;10906;45.194;5.684;2022-10-18T17:39:03;19.50;99.60
21489;DHT22;10906;45.194;5.684;2022-10-18T17:41:47;19.40;99.60
21489;DHT22;10906;45.194;5.684;2022-10-18T17:44:32;19.30;99.70
21489;DHT22;10906;45.194;5.684;2022-10-18T17:47:17;19.30;99.80
21489;DHT22;10906;45.194;5.684;2022-10-18T17:50:01;19.20;99.90
21489;DHT22;10906;45.194;5.684;2022-10-18T17:52:46;19.20;99.90
21489;DHT22;10906;45.194;5.684;2022-10-18T17:55:32;19.00;99.90
21489;DHT22;10906;45.194;5.684;2022-10-18T17:58:17;19.00;99.90
21489;DHT22;10906;45.194;5.684;2022-10-18T18:01:13;19.00;99.90
21489;DHT22;10906;45.194;5.684;2022-10-18T18:04:02;18.90;99.90
21489;DHT22;10906;45.194;5.684;2022-10-18T18:06:46;18.90;99.90
21489;DHT22;10906;45.194;5.684;2022-10-18T18:09:32;18.90;99.90
21489;DHT22;10906;45.194;5.684;2022-10-18T18:12:16;18.90;99.90
21489;DHT22;10906;45.194;5.684;2022-10-18T18:15:01;18.90;99.90
21489;DHT22;10906;45.194;5.684;2022-10-18T18:17:45;18.80;99.90
21489;DHT22;10906;45.194;5.684;2022-10-18T18:20:29;18.90;99.90
21489;DHT22;10906;45.194;5.684;2022-10-18T18:23:14;18.80;99.90
21489;DHT22;10906;45.194;5.684;2022-10-18T18:25:59;18.90;99.90
21489;DHT22;10906;45.194;5.684;2022-10-18T18:28:43;18.80;99.90
21489;DHT22;10906;45.194;5.684;2022-10-18T18:31:28;18.80;99.90
21489;DHT22;10906;45.194;5.684;2022-10-18T18:34:13;18.70;99.90
21489;DHT22;10906;45.194;5.684;2022-10-18T18:36:58;18.70;99.90
21489;DHT22;10906;45.194;5.684;2022-10-18T18:39:42;18.70;99.90
21489;DHT22;10906;45.194;5.684;2022-10-18T18:42:27;18.70;99.90
21489;DHT22;10906;45.194;5.684;2022-10-18T18:45:12;18.60;99.90
21489;DHT22;10906;45.194;5.684;2022-10-18T18:47:56;18.60;99.90
21489;DHT22;10906;45.194;5.684;2022-10-18T18:50:40;18.50;99.90
21489;DHT22;10906;45.194;5.684;2022-10-18T18:53:27;18.50;99.90
21489;DHT22;10906;45.194;5.684;2022-10-18T18:56:17;18.40;99.90
21489;DHT22;10906;45.194;5.684;2022-10-18T18:59:02;18.40;99.90
21489;DHT22;10906;45.194;5.684;2022-10-18T19:01:46;18.30;99.90
21489;DHT22;10906;45.194;5.684;2022-10-18T19:04:30;18.30;99.90
21489;DHT22;10906;45.194;5.684;2022-10-18T19:07:15;18.20;99.90
21489;DHT22;10906;45.194;5.684;2022-10-18T19:09:59;18.20;99.90
21489;DHT22;10906;45.194;5.684;2022-10-18T19:12:43;18.20;99.90
21489;DHT22;10906;45.194;5.684;2022-10-18T19:15:28;18.10;99.90
21489;DHT22;10906;45.194;5.684;2022-10-18T19:18:12;18.10;99.90
21489;DHT22;10906;45.194;5.684;2022-10-18T19:20:57;18.00;99.90
21489;DHT22;10906;45.194;5.684;2022-10-18T19:23:42;18.00;99.90
21489;DHT22;10906;45.194;5.684;2022-10-18T19:29:30;17.90;99.90
21489;DHT22;10906;45.194;5.684;2022-10-18T19:32:14;17.90;99.90
21489;DHT22;10906;45.194;5.684;2022-10-18T19:35:01;17.90;99.90
21489;DHT22;10906;45.194;5.684;2022-10-18T19:37:45;17.80;99.90
21489;DHT22;10906;45.194;5.684;2022-10-18T19:40:30;17.70;99.90
21489;DHT22;10906;45.194;5.684;2022-10-18T19:43:14;17.70;99.90
21489;DHT22;10906;45.194;5.684;2022-10-18T19:46:04;17.70;99.90
21489;DHT22;10906;45.194;5.684;2022-10-18T19:48:49;17.70;99.90
21489;DHT22;10906;45.194;5.684;2022-10-18T19:51:33;17.70;99.90
21489;DHT22;10906;45.194;5.684;2022-10-18T19:54:18;17.70;99.90
21489;DHT22;10906;45.194;5.684;2022-10-18T19:57:02;17.80;99.90
21489;DHT22;10906;45.194;5.684;2022-10-18T19:59:47;17.80;99.90
21489;DHT22;10906;45.194;5.684;2022-10-18T20:02:31;17.80;99.90
21489;DHT22;10906;45.194;5.684;2022-10-18T20:05:15;17.70;99.90
21489;DHT22;10906;45.194;5.684;2022-10-18T20:08:00;17.60;99.90
21489;DHT22;10906;45.194;5.684;2022-10-18T20:10:44;17.50;99.90
21489;DHT22;10906;45.194;5.684;2022-10-18T20:13:28;17.50;99.90
21489;DHT22;10906;45.194;5.684;2022-10-18T20:16:14;17.50;99.90
21489;DHT22;10906;45.194;5.684;2022-10-18T20:19:01;17.50;99.90
21489;DHT22;10906;45.194;5.684;2022-10-18T20:21:46;17.60;99.90
21489;DHT22;10906;45.194;5.684;2022-10-18T20:24:30;17.60;99.90
21489;DHT22;10906;45.194;5.684;2022-10-18T20:27:15;17.50;99.90
21489;DHT22;10906;45.194;5.684;2022-10-18T20:30:00;17.50;99.90
21489;DHT22;10906;45.194;5.684;2022-10-18T20:32:43;17.50;99.90
21489;DHT22;10906;45.194;5.684;2022-10-18T20:35:28;17.40;99.90
21489;DHT22;10906;45.194;5.684;2022-10-18T20:38:12;17.30;99.90
21489;DHT22;10906;45.194;5.684;2022-10-18T20:41:04;17.30;99.90
21489;DHT22;10906;45.194;5.684;2022-10-18T20:43:54;17.30;99.90
21489;DHT22;10906;45.194;5.684;2022-10-18T20:46:39;17.30;99.90
21489;DHT22;10906;45.194;5.684;2022-10-18T20:49:24;17.20;99.90
21489;DHT22;10906;45.194;5.684;2022-10-18T20:52:08;17.30;99.90
21489;DHT22;10906;45.194;5.684;2022-10-18T20:54:54;17.30;99.90
21489;DHT22;10906;45.194;5.684;2022-10-18T20:57:41;17.30;99.90
21489;DHT22;10906;45.194;5.684;2022-10-18T21:00:26;17.20;99.90
21489;DHT22;10906;45.194;5.684;2022-10-18T21:03:10;17.20;99.90
21489;DHT22;10906;45.194;5.684;2022-10-18T21:05:55;17.20;99.90
21489;DHT22;10906;45.194;5.684;2022-10-18T21:08:40;17.20;99.90
21489;DHT22;10906;45.194;5.684;2022-10-18T21:11:27;17.10;99.90
21489;DHT22;10906;45.194;5.684;2022-10-18T21:14:22;17.10;99.90
21489;DHT22;10906;45.194;5.684;2022-10-18T21:17:07;17.10;99.90
21489;DHT22;10906;45.194;5.684;2022-10-18T21:19:52;17.10;99.90
21489;DHT22;10906;45.194;5.684;2022-10-18T21:22:36;17.10;99.90
21489;DHT22;10906;45.194;5.684;2022-10-18T21:25:22;17.10;99.90
21489;DHT22;10906;45.194;5.684;2022-10-18T21:28:06;17.10;99.90
21489;DHT22;10906;45.194;5.684;2022-10-18T21:30:50;17.10;99.90
21489;DHT22;10906;45.194;5.684;2022-10-18T21:33:35;17.10;99.90
21489;DHT22;10906;45.194;5.684;2022-10-18T21:36:19;17.10;99.90
21489;DHT22;10906;45.194;5.684;2022-10-18T21:39:06;17.10;99.90
21489;DHT22;10906;45.194;5.684;2022-10-18T21:41:51;17.10;99.90
21489;DHT22;10906;45.194;5.684;2022-10-18T21:44:35;17.10;99.90
21489;DHT22;10906;45.194;5.684;2022-10-18T21:47:20;17.20;99.90
21489;DHT22;10906;45.194;5.684;2022-10-18T21:50:05;17.20;99.90
21489;DHT22;10906;45.194;5.684;2022-10-18T21:52:50;17.20;99.90
21489;DHT22;10906;45.194;5.684;2022-10-18T21:55:35;17.20;99.90
21489;DHT22;10906;45.194;5.684;2022-10-18T21:58:22;17.10;99.90
